createdAt,value
2022-08-08T00:00:52.315Z,2.95
2022-08-08T00:02:55.092Z,3.30
2022-08-08T00:05:43.518Z,3.40
2022-08-08T00:08:14.323Z,3.33
2022-08-08T00:10:55.472Z,3.47
2022-08-08T00:14:17.736Z,3.25
2022-08-08T00:16:47.005Z,3.53
2022-08-08T00:19:26.473Z,3.28
2022-08-08T00:22:12.352Z,3.17
2022-08-08T00:25:00.262Z,3.00
2022-08-08T00:27:32.960Z,3.28
2022-08-08T00:32:36.605Z,3.70
2022-08-08T00:35:20.105Z,3.50
2022-08-08T00:38:06.423Z,3.20
2022-08-08T00:41:10.329Z,3.40
2022-08-08T00:43:40.572Z,3.75
2022-08-08T00:46:16.205Z,3.40
2022-08-08T00:48:50.104Z,3.60
2022-08-08T00:51:42.151Z,3.70
2022-08-08T00:54:28.622Z,3.40
2022-08-08T00:56:56.134Z,3.50
2022-08-08T00:59:44.333Z,3.20
2022-08-08T01:03:16.038Z,3.35
2022-08-08T01:05:58.859Z,3.00
2022-08-08T01:08:57.066Z,3.22
2022-08-08T01:11:43.079Z,3.25
2022-08-08T01:14:53.957Z,3.40
2022-08-08T01:17:34.856Z,3.63
2022-08-08T01:20:21.942Z,3.15
2022-08-08T01:23:02.155Z,3.00
2022-08-08T01:25:47.351Z,3.22
2022-08-08T01:28:39.970Z,3.30
2022-08-08T01:31:34.240Z,2.90
2022-08-08T01:34:12.675Z,2.83
2022-08-08T01:36:50.879Z,3.00
2022-08-08T01:39:27.920Z,3.08
2022-08-08T01:42:01.703Z,3.20
2022-08-08T01:44:50.617Z,2.83
2022-08-08T01:48:16.147Z,3.20
2022-08-08T01:50:39.052Z,2.92
2022-08-08T01:55:17.357Z,3.10
2022-08-08T01:56:37.048Z,2.80
2022-08-08T01:59:04.706Z,2.88
2022-08-08T02:02:00.609Z,3.00
2022-08-08T02:04:30.146Z,2.85
2022-08-08T02:07:02.528Z,3.10
2022-08-08T02:10:01.327Z,3.00
2022-08-08T02:12:27.086Z,3.35
2022-08-08T02:15:01.002Z,3.20
2022-08-08T02:17:59.779Z,3.10
2022-08-08T02:21:01.686Z,3.08
2022-08-08T02:23:37.678Z,2.85
2022-08-08T02:26:15.797Z,2.83
2022-08-08T02:28:54.350Z,2.97
2022-08-08T02:31:58.390Z,3.50
2022-08-08T02:34:32.905Z,2.83
2022-08-08T02:37:52.632Z,2.83
2022-08-08T02:40:16.328Z,3.28
2022-08-08T02:44:35.000Z,3.08
2022-08-08T02:46:10.722Z,3.08
2022-08-08T02:49:06.996Z,3.08
2022-08-08T02:51:56.879Z,3.30
2022-08-08T02:54:42.412Z,3.40
2022-08-08T02:57:12.275Z,3.20
2022-08-08T02:59:57.427Z,3.35
2022-08-08T03:02:37.692Z,3.25
2022-08-08T03:05:11.079Z,3.00
2022-08-08T03:07:58.249Z,3.30
2022-08-08T03:10:32.537Z,3.63
2022-08-08T03:14:15.790Z,3.17
2022-08-08T03:16:13.688Z,3.28
2022-08-08T03:19:20.017Z,3.20
2022-08-08T03:21:58.560Z,3.47
2022-08-08T03:24:26.144Z,3.25
2022-08-08T03:26:56.930Z,3.30
2022-08-08T03:29:54.673Z,3.30
2022-08-08T03:32:34.339Z,3.15
2022-08-08T03:35:02.072Z,3.25
2022-08-08T03:38:53.505Z,3.42
2022-08-08T03:40:29.427Z,3.20
2022-08-08T03:42:58.606Z,3.28
2022-08-08T03:46:03.014Z,3.20
2022-08-08T03:49:09.680Z,3.08
2022-08-08T03:51:19.309Z,3.38
2022-08-08T03:53:47.815Z,3.47
2022-08-08T03:56:31.924Z,3.58
2022-08-08T03:58:59.844Z,3.72
2022-08-08T04:02:13.346Z,3.88
2022-08-08T04:04:30.777Z,3.90
2022-08-08T04:07:01.133Z,3.67
2022-08-08T04:09:47.209Z,3.97
2022-08-08T04:12:16.277Z,3.92
2022-08-08T04:14:45.343Z,3.70
2022-08-08T04:17:22.224Z,3.60
2022-08-08T04:19:50.230Z,3.67
2022-08-08T04:22:24.263Z,3.60
2022-08-08T04:24:56.717Z,3.75
2022-08-08T04:28:02.758Z,3.58
2022-08-08T04:30:18.626Z,4.00
2022-08-08T04:32:50.039Z,3.45
2022-08-08T04:35:18.375Z,3.30
2022-08-08T04:37:49.601Z,3.90
2022-08-08T04:40:18.180Z,4.10
2022-08-08T04:42:46.621Z,3.90
2022-08-08T04:45:25.417Z,3.88
2022-08-08T04:47:53.284Z,3.88
2022-08-08T04:50:25.454Z,3.78
2022-08-08T04:52:58.725Z,3.88
2022-08-08T04:55:47.840Z,3.97
2022-08-08T04:58:19.459Z,4.50
2022-08-08T05:00:47.609Z,3.70
2022-08-08T05:03:18.985Z,3.90
2022-08-08T05:06:13.188Z,3.50
2022-08-08T05:08:46.186Z,3.85
2022-08-08T05:11:23.157Z,4.07
2022-08-08T05:13:57.480Z,4.10
2022-08-08T05:16:53.306Z,4.57
2022-08-08T05:20:09.733Z,4.80
2022-08-08T05:22:01.323Z,4.05
2022-08-08T05:24:30.894Z,3.70
2022-08-08T05:26:58.379Z,4.10
2022-08-08T05:29:29.143Z,4.60
2022-08-08T05:32:05.638Z,4.15
2022-08-08T05:34:47.490Z,4.68
2022-08-08T05:37:23.749Z,4.43
2022-08-08T05:40:07.392Z,4.90
2022-08-08T05:42:43.912Z,4.65
2022-08-08T05:45:25.331Z,4.53
2022-08-08T05:48:01.472Z,4.13
2022-08-08T05:50:30.339Z,4.05
2022-08-08T05:53:54.243Z,3.90
2022-08-08T05:56:09.510Z,4.53
2022-08-08T05:58:36.814Z,3.63
2022-08-08T06:01:04.906Z,4.38
2022-08-08T06:03:33.616Z,3.95
2022-08-08T06:06:06.393Z,4.32
2022-08-08T06:08:36.404Z,3.85
2022-08-08T06:11:05.904Z,3.60
2022-08-08T06:13:35.726Z,4.10
2022-08-08T06:16:03.824Z,4.13
2022-08-08T06:18:33.849Z,4.63
2022-08-08T06:21:11.233Z,4.30
2022-08-08T06:23:52.515Z,3.90
2022-08-08T06:26:44.664Z,4.75
2022-08-08T06:29:49.177Z,3.80
2022-08-08T06:32:09.961Z,3.72
2022-08-08T06:34:40.227Z,3.65
2022-08-08T06:37:24.538Z,3.20
2022-08-08T06:39:55.980Z,3.70
2022-08-08T06:42:25.134Z,4.05
2022-08-08T06:44:55.644Z,4.18
2022-08-08T06:47:22.931Z,3.75
2022-08-08T06:50:01.146Z,3.70
2022-08-08T06:52:32.340Z,4.18
2022-08-08T06:55:01.661Z,4.50
2022-08-08T06:57:29.223Z,3.90
2022-08-08T07:00:12.159Z,4.03
2022-08-08T07:02:45.989Z,3.78
2022-08-08T07:05:20.341Z,3.35
2022-08-08T07:10:19.472Z,3.45
2022-08-08T07:12:54.326Z,3.65
2022-08-08T07:15:40.937Z,3.80
2022-08-08T07:18:36.018Z,3.20
2022-08-08T07:21:18.514Z,3.63
2022-08-08T07:24:03.169Z,2.60
2022-08-08T07:26:35.258Z,3.00
2022-08-08T07:29:05.182Z,3.10
2022-08-08T07:31:35.440Z,2.90
2022-08-08T07:34:03.907Z,2.50
2022-08-08T07:36:36.502Z,2.37
2022-08-08T07:39:04.436Z,2.67
2022-08-08T07:42:04.667Z,2.70
2022-08-08T07:44:40.706Z,2.33
2022-08-08T07:47:10.964Z,2.22
2022-08-08T07:49:40.065Z,2.47
2022-08-08T07:52:08.640Z,2.13
2022-08-08T07:54:48.937Z,2.22
2022-08-08T07:57:24.558Z,2.03
2022-08-08T08:00:13.179Z,2.10
2022-08-08T08:02:44.891Z,2.25
2022-08-08T08:05:23.165Z,2.00
2022-08-08T08:07:55.691Z,1.83
2022-08-08T08:10:30.584Z,2.00
2022-08-08T08:13:25.174Z,2.20
2022-08-08T08:16:07.514Z,1.90
2022-08-08T08:18:56.165Z,2.47
2022-08-08T08:21:35.522Z,2.20
2022-08-08T08:24:11.213Z,2.00
2022-08-08T08:26:39.818Z,1.83
2022-08-08T08:29:19.850Z,1.55
2022-08-08T08:31:57.565Z,1.65
2022-08-08T08:34:31.758Z,1.80
2022-08-08T08:36:59.904Z,1.98
2022-08-08T08:40:00.390Z,1.98
2022-08-08T08:42:29.200Z,1.85
2022-08-08T08:45:20.812Z,1.65
2022-08-08T08:47:52.923Z,1.70
2022-08-08T08:50:33.008Z,2.10
2022-08-08T08:53:04.677Z,2.00
2022-08-08T08:55:52.957Z,1.70
2022-08-08T08:58:35.498Z,1.70
2022-08-08T09:01:09.715Z,1.40
2022-08-08T09:03:46.962Z,1.65
2022-08-08T09:06:28.572Z,1.52
2022-08-08T09:09:26.568Z,1.95
2022-08-08T09:12:07.594Z,2.15
2022-08-08T09:14:36.217Z,2.08
2022-08-08T09:17:15.714Z,1.65
2022-08-08T09:21:57.977Z,1.80
2022-08-08T09:22:35.073Z,1.92
2022-08-08T09:25:03.880Z,1.75
2022-08-08T09:27:56.700Z,2.08
2022-08-08T09:30:20.194Z,2.00
2022-08-08T09:33:12.902Z,2.50
2022-08-08T09:35:48.664Z,2.22
2022-08-08T09:38:19.748Z,2.10
2022-08-08T09:40:55.683Z,2.10
2022-08-08T09:44:05.781Z,2.35
2022-08-08T09:46:30.615Z,2.17
2022-08-08T09:49:04.307Z,2.30
2022-08-08T09:52:06.334Z,2.28
2022-08-08T09:54:45.755Z,2.17
2022-08-08T09:57:16.865Z,2.40
2022-08-08T10:00:01.840Z,2.20
2022-08-08T10:02:40.104Z,1.88
2022-08-08T10:05:15.007Z,1.90
2022-08-08T10:07:51.563Z,1.65
2022-08-08T10:10:50.871Z,1.80
2022-08-08T10:13:19.340Z,2.10
2022-08-08T10:16:00.716Z,2.40
2022-08-08T10:18:33.722Z,2.47
2022-08-08T10:21:25.106Z,1.98
2022-08-08T10:23:59.814Z,2.15
2022-08-08T10:26:57.048Z,2.13
2022-08-08T10:29:24.905Z,2.20
2022-08-08T10:32:16.546Z,2.67
2022-08-08T10:34:51.143Z,2.70
2022-08-08T10:37:34.688Z,2.40
2022-08-08T10:40:16.889Z,2.53
2022-08-08T10:42:45.407Z,2.28
2022-08-08T10:45:15.881Z,2.33
2022-08-08T10:47:48.591Z,2.47
2022-08-08T10:50:23.724Z,2.40
2022-08-08T10:52:51.406Z,2.50
2022-08-08T10:55:40.448Z,2.83
2022-08-08T10:58:08.303Z,2.85
2022-08-08T11:00:48.673Z,2.80
2022-08-08T11:03:37.244Z,2.33
2022-08-08T11:06:12.572Z,2.20
2022-08-08T11:08:46.265Z,2.80
2022-08-08T11:11:59.979Z,2.30
2022-08-08T11:14:12.326Z,2.53
2022-08-08T11:16:46.819Z,2.88
2022-08-08T11:19:15.633Z,2.65
2022-08-08T11:21:53.943Z,2.40
2022-08-08T11:24:23.968Z,2.55
2022-08-08T11:26:57.017Z,2.30
2022-08-08T11:29:41.429Z,2.10
2022-08-08T11:32:14.235Z,2.40
2022-08-08T11:34:58.951Z,2.20
2022-08-08T11:38:35.763Z,2.38
2022-08-08T11:40:25.796Z,2.00
2022-08-08T11:42:55.787Z,2.30
2022-08-08T11:45:23.580Z,2.15
2022-08-08T11:48:02.711Z,2.17
2022-08-08T11:50:33.929Z,2.10
2022-08-08T11:53:05.778Z,2.42
2022-08-08T11:55:36.393Z,2.40
2022-08-08T11:58:08.386Z,2.97
2022-08-08T12:00:46.120Z,2.22
2022-08-08T12:03:22.959Z,2.30
2022-08-08T12:05:51.389Z,2.33
2022-08-08T12:08:30.385Z,2.28
2022-08-08T12:11:00.379Z,2.10
2022-08-08T12:13:38.517Z,2.20
2022-08-08T12:16:19.221Z,2.20
2022-08-08T12:18:54.115Z,2.08
2022-08-08T12:21:21.586Z,2.20
2022-08-08T12:24:13.155Z,2.28
2022-08-08T12:26:41.654Z,2.17
2022-08-08T12:29:40.187Z,2.08
2022-08-08T12:32:13.574Z,2.28
2022-08-08T12:34:48.654Z,2.45
2022-08-08T12:37:34.910Z,2.30
2022-08-08T12:40:13.752Z,2.10
2022-08-08T12:42:50.917Z,2.47
2022-08-08T12:45:58.448Z,2.30
2022-08-08T12:48:10.117Z,2.83
2022-08-08T12:50:57.392Z,2.47
2022-08-08T12:53:28.332Z,2.60
2022-08-08T12:56:17.958Z,2.53
2022-08-08T12:58:51.395Z,2.10
2022-08-08T13:01:24.634Z,2.13
2022-08-08T13:04:18.540Z,2.40
2022-08-08T13:07:00.852Z,2.70
2022-08-08T13:09:57.425Z,2.70
2022-08-08T13:12:29.274Z,2.72
2022-08-08T13:14:58.023Z,2.20
2022-08-08T13:18:09.518Z,2.40
2022-08-08T13:20:15.477Z,2.30
2022-08-08T13:22:45.543Z,2.53
2022-08-08T13:25:17.406Z,2.03
2022-08-08T13:27:45.008Z,2.42
2022-08-08T13:30:21.250Z,2.30
2022-08-08T13:32:57.221Z,2.25
2022-08-08T13:35:29.437Z,2.42
2022-08-08T13:38:12.875Z,2.20
2022-08-08T13:40:57.290Z,1.90
2022-08-08T13:43:33.663Z,2.40
2022-08-08T13:46:28.139Z,2.40
2022-08-08T13:50:33.481Z,2.03
2022-08-08T13:52:35.831Z,2.20
2022-08-08T13:55:00.844Z,2.25
2022-08-08T13:58:06.481Z,2.63
2022-08-08T14:00:21.403Z,2.00
2022-08-08T14:02:59.926Z,1.90
2022-08-08T14:05:34.409Z,2.20
2022-08-08T14:10:33.412Z,2.22
2022-08-08T14:13:10.142Z,1.80
2022-08-08T14:16:02.138Z,2.10
2022-08-08T14:18:36.954Z,2.35
2022-08-08T14:21:20.995Z,2.08
2022-08-08T14:24:06.870Z,1.88
2022-08-08T14:26:45.903Z,2.22
2022-08-08T14:29:29.878Z,2.00
2022-08-08T14:32:10.601Z,1.83
2022-08-08T14:34:42.424Z,2.00
2022-08-08T14:37:10.167Z,1.75
2022-08-08T14:40:05.924Z,1.95
2022-08-08T14:42:47.308Z,1.98
2022-08-08T14:45:28.963Z,2.00
2022-08-08T14:48:04.937Z,2.03
2022-08-08T14:50:38.118Z,2.00
2022-08-08T14:53:15.661Z,1.90
2022-08-08T14:55:43.477Z,2.40
2022-08-08T14:58:16.661Z,2.25
2022-08-08T15:00:47.952Z,2.30
2022-08-08T15:03:17.271Z,2.10
2022-08-08T15:05:54.200Z,1.95
2022-08-08T15:08:35.664Z,1.95
2022-08-08T15:11:07.248Z,2.42
2022-08-08T15:13:40.610Z,1.90
2022-08-08T15:16:23.943Z,2.03
2022-08-08T15:18:51.862Z,1.98
2022-08-08T15:21:20.608Z,1.92
2022-08-08T15:23:51.518Z,2.03
2022-08-08T15:26:20.029Z,2.10
2022-08-08T15:28:53.221Z,2.65
2022-08-08T15:31:25.978Z,2.00
2022-08-08T15:34:29.860Z,2.08
2022-08-08T15:36:56.837Z,2.10
2022-08-08T15:39:24.089Z,1.90
2022-08-08T15:41:53.051Z,1.98
2022-08-08T15:44:21.199Z,1.90
2022-08-08T15:46:50.904Z,2.45
2022-08-08T15:49:20.442Z,2.00
2022-08-08T15:51:50.025Z,2.22
2022-08-08T15:54:18.897Z,1.95
2022-08-08T15:57:07.420Z,1.90
2022-08-08T16:00:05.469Z,1.77
2022-08-08T16:02:22.343Z,2.00
2022-08-08T16:04:58.568Z,1.90
2022-08-08T16:07:51.464Z,2.10
2022-08-08T16:13:09.629Z,2.05
2022-08-08T16:13:27.254Z,1.92
2022-08-08T16:15:58.207Z,1.83
2022-08-08T16:18:30.553Z,1.92
2022-08-08T16:21:00.454Z,2.40
2022-08-08T16:23:31.743Z,2.00
2022-08-08T16:26:04.231Z,2.03
2022-08-08T16:28:34.991Z,1.90
2022-08-08T16:31:03.194Z,2.10
2022-08-08T16:33:38.363Z,1.67
2022-08-08T16:36:08.798Z,2.20
2022-08-08T16:38:44.800Z,1.90
2022-08-08T16:41:20.230Z,2.00
2022-08-08T16:43:50.665Z,2.20
2022-08-08T16:46:43.113Z,1.85
2022-08-08T16:49:08.014Z,1.85
2022-08-08T16:55:02.815Z,2.00
2022-08-08T16:55:06.471Z,2.05
2022-08-08T16:57:23.276Z,2.20
2022-08-08T17:00:06.386Z,1.85
2022-08-08T17:02:38.418Z,2.37
2022-08-08T17:05:06.865Z,1.98
2022-08-08T17:07:37.911Z,2.05
2022-08-08T17:10:08.226Z,2.50
2022-08-08T17:12:37.638Z,2.20
2022-08-08T17:15:17.783Z,2.30
2022-08-08T17:18:03.538Z,2.28
2022-08-08T17:20:38.137Z,1.90
2022-08-08T17:23:18.464Z,2.35
2022-08-08T17:25:54.415Z,2.15
2022-08-08T17:28:34.452Z,2.25
2022-08-08T17:31:11.913Z,2.28
2022-08-08T17:34:48.043Z,2.00
2022-08-08T17:37:00.038Z,2.17
2022-08-08T17:40:04.334Z,1.75
2022-08-08T17:42:18.093Z,2.08
2022-08-08T17:44:45.835Z,2.22
2022-08-08T17:47:23.374Z,2.05
2022-08-08T17:49:52.557Z,2.00
2022-08-08T17:52:20.300Z,2.45
2022-08-08T17:54:56.156Z,2.35
2022-08-08T17:57:23.717Z,1.90
2022-08-08T17:59:51.794Z,2.10
2022-08-08T18:02:28.785Z,1.90
2022-08-08T18:04:58.366Z,1.90
2022-08-08T18:08:01.728Z,2.10
2022-08-08T18:10:15.411Z,2.10
2022-08-08T18:12:44.426Z,1.92
2022-08-08T18:15:13.569Z,2.08
2022-08-08T18:18:27.469Z,2.10
2022-08-08T18:20:43.274Z,2.13
2022-08-08T18:23:15.649Z,1.83
2022-08-08T18:25:45.869Z,2.20
2022-08-08T18:28:14.366Z,2.47
2022-08-08T18:30:42.748Z,1.90
2022-08-08T18:33:36.798Z,2.10
2022-08-08T18:36:02.943Z,1.80
2022-08-08T18:38:30.794Z,2.20
2022-08-08T18:40:59.573Z,2.38
2022-08-08T18:43:42.624Z,2.60
2022-08-08T18:46:54.874Z,2.00
2022-08-08T18:48:58.342Z,2.40
2022-08-08T18:51:53.180Z,2.00
2022-08-08T18:54:22.507Z,2.30
2022-08-08T18:56:53.810Z,2.20
2022-08-08T18:59:22.879Z,2.00
2022-08-08T19:02:27.578Z,2.22
2022-08-08T19:04:37.431Z,2.08
2022-08-08T19:07:04.755Z,2.20
2022-08-08T19:09:48.768Z,2.33
2022-08-08T19:12:19.282Z,2.13
2022-08-08T19:14:53.702Z,2.45
2022-08-08T19:17:28.791Z,2.50
2022-08-08T19:20:02.110Z,2.10
2022-08-08T19:22:30.459Z,2.40
2022-08-08T19:26:00.949Z,2.40
2022-08-08T19:27:57.304Z,2.10
2022-08-08T19:30:28.242Z,2.25
2022-08-08T19:33:00.430Z,2.20
2022-08-08T19:35:45.606Z,2.70
2022-08-08T19:38:17.362Z,2.22
2022-08-08T19:40:50.123Z,2.30
2022-08-08T19:43:28.706Z,2.30
2022-08-08T19:46:00.812Z,2.30
2022-08-08T19:48:30.845Z,2.35
2022-08-08T19:51:00.783Z,2.13
2022-08-08T19:53:53.639Z,2.10
2022-08-08T19:56:16.142Z,2.40
2022-08-08T19:58:51.827Z,2.80
2022-08-08T20:01:24.089Z,3.25
2022-08-08T20:04:03.480Z,2.22
2022-08-08T20:06:31.086Z,2.30
2022-08-08T20:08:58.526Z,2.67
2022-08-08T20:11:26.050Z,2.30
2022-08-08T20:14:12.621Z,2.30
2022-08-08T20:16:43.903Z,2.15
2022-08-08T20:19:12.780Z,2.30
2022-08-08T20:21:41.593Z,2.03
2022-08-08T20:24:08.959Z,2.45
2022-08-08T20:26:41.503Z,2.03
2022-08-08T20:29:10.871Z,1.98
2022-08-08T20:32:08.226Z,2.42
2022-08-08T20:34:31.119Z,2.10
2022-08-08T20:36:59.686Z,2.30
2022-08-08T20:39:39.241Z,2.20
2022-08-08T20:42:14.050Z,2.40
2022-08-08T20:44:41.197Z,2.00
2022-08-08T20:47:22.636Z,2.03
2022-08-08T20:49:57.589Z,2.08
2022-08-08T20:52:26.113Z,2.05
2022-08-08T20:54:53.249Z,2.63
2022-08-08T20:57:21.391Z,2.53
2022-08-08T20:59:48.742Z,2.17
2022-08-08T21:02:19.726Z,1.77
2022-08-08T21:04:52.808Z,2.00
2022-08-08T21:07:31.209Z,2.17
2022-08-08T21:10:13.045Z,2.20
2022-08-08T21:12:41.392Z,2.00
2022-08-08T21:15:11.800Z,1.92
2022-08-08T21:17:45.123Z,2.20
2022-08-08T21:20:23.080Z,2.00
2022-08-08T21:23:02.159Z,2.30
2022-08-08T21:25:36.202Z,2.08
2022-08-08T21:28:09.391Z,2.28
2022-08-08T21:30:42.907Z,2.25
2022-08-08T21:33:16.892Z,3.03
2022-08-08T21:36:19.230Z,2.40
2022-08-08T21:38:31.319Z,2.28
2022-08-08T21:40:58.584Z,2.45
2022-08-08T21:43:33.336Z,2.50
2022-08-08T21:48:04.624Z,2.22
2022-08-08T21:48:51.026Z,2.20
2022-08-08T21:51:31.692Z,2.50
2022-08-08T21:54:33.263Z,2.42
2022-08-08T21:56:54.528Z,2.65
2022-08-08T21:59:22.896Z,2.75
2022-08-08T22:01:52.342Z,2.97
2022-08-08T22:04:22.586Z,2.65
2022-08-08T22:06:51.989Z,2.90
2022-08-08T22:09:19.577Z,2.80
2022-08-08T22:12:02.316Z,2.47
2022-08-08T22:14:34.435Z,2.40
2022-08-08T22:17:03.755Z,2.80
2022-08-08T22:20:10.981Z,2.92
2022-08-08T22:22:18.972Z,2.95
2022-08-08T22:24:46.140Z,2.80
2022-08-08T22:27:14.970Z,2.40
2022-08-08T22:29:59.242Z,2.80
2022-08-08T22:32:29.524Z,2.92
2022-08-08T22:34:56.742Z,2.67
2022-08-08T22:37:49.323Z,2.92
2022-08-08T22:40:16.917Z,2.88
2022-08-08T22:42:45.617Z,2.88
2022-08-08T22:45:15.722Z,2.80
2022-08-08T22:47:46.776Z,3.08
2022-08-08T22:50:26.035Z,3.03
2022-08-08T22:54:29.336Z,3.08
2022-08-08T22:55:58.454Z,3.30
2022-08-08T22:58:29.221Z,3.15
2022-08-08T23:00:59.863Z,3.45
2022-08-08T23:03:52.670Z,2.90
2022-08-08T23:06:16.033Z,3.00
2022-08-08T23:08:44.462Z,3.42
2022-08-08T23:11:22.203Z,3.80
2022-08-08T23:13:53.864Z,3.22
2022-08-08T23:16:42.041Z,3.35
2022-08-08T23:19:11.524Z,3.58
2022-08-08T23:21:39.094Z,3.38
2022-08-08T23:24:07.034Z,3.58
2022-08-08T23:26:34.537Z,3.15
2022-08-08T23:29:02.210Z,3.30
2022-08-08T23:31:29.418Z,3.30
2022-08-08T23:34:15.885Z,3.55
2022-08-08T23:36:46.744Z,2.95
2022-08-08T23:39:14.071Z,3.25
2022-08-08T23:41:45.815Z,2.83
2022-08-08T23:44:14.458Z,3.10
2022-08-08T23:49:00.408Z,3.25
2022-08-08T23:49:29.625Z,3.88
2022-08-08T23:52:04.923Z,3.35
2022-08-08T23:54:42.970Z,3.45
2022-08-08T23:57:27.795Z,3.60
